sensor_id;sensor_type;location;lat;lon;timestamp;P1;durP1;ratioP1;P2;durP2;ratioP2
5939;SDS011;2995;-31.998;115.906;2024-01-30T00:01:46;12.70;;;2.53;;
5939;SDS011;2995;-31.998;115.906;2024-01-30T00:04:17;11.23;;;2.63;;
5939;SDS011;2995;-31.998;115.906;2024-01-30T00:06:51;7.07;;;1.70;;
5939;SDS011;2995;-31.998;115.906;2024-01-30T00:09:22;5.67;;;2.20;;
5939;SDS011;2995;-31.998;115.906;2024-01-30T00:11:55;9.13;;;2.00;;
5939;SDS011;2995;-31.998;115.906;2024-01-30T00:14:27;7.03;;;1.87;;
5939;SDS011;2995;-31.998;115.906;2024-01-30T00:16:58;5.40;;;1.57;;
5939;SDS011;2995;-31.998;115.906;2024-01-30T00:19:29;7.60;;;1.77;;
5939;SDS011;2995;-31.998;115.906;2024-01-30T00:22:01;4.90;;;2.10;;
5939;SDS011;2995;-31.998;115.906;2024-01-30T00:24:32;4.60;;;1.70;;
5939;SDS011;2995;-31.998;115.906;2024-01-30T00:27:05;9.13;;;2.00;;
5939;SDS011;2995;-31.998;115.906;2024-01-30T00:29:37;8.00;;;1.83;;
5939;SDS011;2995;-31.998;115.906;2024-01-30T00:32:08;5.47;;;1.83;;
5939;SDS011;2995;-31.998;115.906;2024-01-30T00:34:39;3.60;;;1.70;;
5939;SDS011;2995;-31.998;115.906;2024-01-30T00:37:11;6.63;;;1.73;;
5939;SDS011;2995;-31.998;115.906;2024-01-30T00:39:42;4.30;;;1.80;;
5939;SDS011;2995;-31.998;115.906;2024-01-30T00:42:16;8.83;;;2.03;;
5939;SDS011;2995;-31.998;115.906;2024-01-30T00:44:47;4.33;;;1.50;;
5939;SDS011;2995;-31.998;115.906;2024-01-30T00:47:18;4.60;;;1.87;;
5939;SDS011;2995;-31.998;115.906;2024-01-30T00:49:50;7.17;;;2.30;;
5939;SDS011;2995;-31.998;115.906;2024-01-30T00:52:21;8.30;;;2.03;;
5939;SDS011;2995;-31.998;115.906;2024-01-30T00:54:52;4.50;;;1.80;;
5939;SDS011;2995;-31.998;115.906;2024-01-30T00:57:25;4.83;;;1.77;;
5939;SDS011;2995;-31.998;115.906;2024-01-30T00:59:57;6.83;;;1.90;;
5939;SDS011;2995;-31.998;115.906;2024-01-30T01:02:28;8.07;;;2.27;;
5939;SDS011;2995;-31.998;115.906;2024-01-30T01:05:00;4.63;;;1.87;;
5939;SDS011;2995;-31.998;115.906;2024-01-30T01:07:31;5.57;;;1.70;;
5939;SDS011;2995;-31.998;115.906;2024-01-30T01:10:02;9.37;;;1.87;;
5939;SDS011;2995;-31.998;115.906;2024-01-30T01:12:36;6.00;;;2.27;;
5939;SDS011;2995;-31.998;115.906;2024-01-30T01:15:08;6.53;;;2.10;;
5939;SDS011;2995;-31.998;115.906;2024-01-30T01:17:39;6.17;;;2.20;;
5939;SDS011;2995;-31.998;115.906;2024-01-30T01:20:11;5.30;;;1.70;;
5939;SDS011;2995;-31.998;115.906;2024-01-30T01:22:42;6.03;;;1.83;;
5939;SDS011;2995;-31.998;115.906;2024-01-30T01:25:13;9.00;;;2.37;;
5939;SDS011;2995;-31.998;115.906;2024-01-30T01:27:47;7.10;;;2.30;;
5939;SDS011;2995;-31.998;115.906;2024-01-30T01:30:19;5.03;;;1.63;;
5939;SDS011;2995;-31.998;115.906;2024-01-30T01:32:52;5.80;;;1.90;;
5939;SDS011;2995;-31.998;115.906;2024-01-30T01:35:26;6.03;;;2.00;;
5939;SDS011;2995;-31.998;115.906;2024-01-30T01:37:57;8.07;;;1.87;;
5939;SDS011;2995;-31.998;115.906;2024-01-30T01:40:29;6.83;;;2.10;;
5939;SDS011;2995;-31.998;115.906;2024-01-30T01:43:02;4.43;;;1.80;;
5939;SDS011;2995;-31.998;115.906;2024-01-30T01:45:34;9.27;;;2.00;;
5939;SDS011;2995;-31.998;115.906;2024-01-30T01:48:05;6.17;;;2.23;;
5939;SDS011;2995;-31.998;115.906;2024-01-30T01:50:37;10.10;;;2.17;;
5939;SDS011;2995;-31.998;115.906;2024-01-30T01:53:10;8.53;;;2.33;;
5939;SDS011;2995;-31.998;115.906;2024-01-30T01:55:42;4.87;;;1.80;;
5939;SDS011;2995;-31.998;115.906;2024-01-30T01:58:15;7.33;;;2.23;;
5939;SDS011;2995;-31.998;115.906;2024-01-30T02:00:47;7.47;;;2.40;;
5939;SDS011;2995;-31.998;115.906;2024-01-30T02:03:19;5.73;;;1.97;;
5939;SDS011;2995;-31.998;115.906;2024-01-30T02:05:50;7.80;;;2.10;;
5939;SDS011;2995;-31.998;115.906;2024-01-30T02:08:23;6.57;;;1.90;;
5939;SDS011;2995;-31.998;115.906;2024-01-30T02:10:55;6.00;;;2.13;;
5939;SDS011;2995;-31.998;115.906;2024-01-30T02:13:29;6.07;;;1.60;;
5939;SDS011;2995;-31.998;115.906;2024-01-30T02:16:00;7.03;;;1.80;;
5939;SDS011;2995;-31.998;115.906;2024-01-30T02:18:32;4.20;;;1.90;;
5939;SDS011;2995;-31.998;115.906;2024-01-30T02:21:10;7.20;;;2.10;;
5939;SDS011;2995;-31.998;115.906;2024-01-30T02:23:41;4.83;;;1.70;;
5939;SDS011;2995;-31.998;115.906;2024-01-30T02:26:15;9.37;;;2.03;;
5939;SDS011;2995;-31.998;115.906;2024-01-30T02:28:47;6.80;;;2.50;;
5939;SDS011;2995;-31.998;115.906;2024-01-30T02:31:18;4.57;;;1.70;;
5939;SDS011;2995;-31.998;115.906;2024-01-30T02:33:50;6.37;;;2.00;;
5939;SDS011;2995;-31.998;115.906;2024-01-30T02:36:23;7.97;;;2.00;;
5939;SDS011;2995;-31.998;115.906;2024-01-30T02:38:55;7.90;;;2.13;;
5939;SDS011;2995;-31.998;115.906;2024-01-30T02:41:26;7.40;;;2.33;;
5939;SDS011;2995;-31.998;115.906;2024-01-30T02:43:57;4.73;;;1.90;;
5939;SDS011;2995;-31.998;115.906;2024-01-30T02:46:28;3.70;;;1.53;;
5939;SDS011;2995;-31.998;115.906;2024-01-30T02:49:00;8.03;;;2.10;;
5939;SDS011;2995;-31.998;115.906;2024-01-30T02:51:33;6.47;;;2.10;;
5939;SDS011;2995;-31.998;115.906;2024-01-30T02:54:04;6.73;;;1.80;;
5939;SDS011;2995;-31.998;115.906;2024-01-30T02:56:35;5.00;;;2.00;;
5939;SDS011;2995;-31.998;115.906;2024-01-30T02:59:22;4.77;;;1.93;;
5939;SDS011;2995;-31.998;115.906;2024-01-30T03:01:54;7.57;;;2.10;;
5939;SDS011;2995;-31.998;115.906;2024-01-30T03:04:25;4.77;;;1.87;;
5939;SDS011;2995;-31.998;115.906;2024-01-30T03:06:59;7.80;;;1.80;;
5939;SDS011;2995;-31.998;115.906;2024-01-30T03:09:30;7.10;;;1.97;;
5939;SDS011;2995;-31.998;115.906;2024-01-30T03:12:01;5.60;;;1.87;;
5939;SDS011;2995;-31.998;115.906;2024-01-30T03:14:32;7.67;;;1.60;;
5939;SDS011;2995;-31.998;115.906;2024-01-30T03:17:04;4.40;;;1.90;;
5939;SDS011;2995;-31.998;115.906;2024-01-30T03:19:35;9.70;;;2.40;;
5939;SDS011;2995;-31.998;115.906;2024-01-30T03:22:09;8.67;;;1.77;;
5939;SDS011;2995;-31.998;115.906;2024-01-30T03:24:40;6.00;;;1.80;;
5939;SDS011;2995;-31.998;115.906;2024-01-30T03:27:11;4.87;;;1.83;;
5939;SDS011;2995;-31.998;115.906;2024-01-30T03:29:42;5.57;;;2.00;;
5939;SDS011;2995;-31.998;115.906;2024-01-30T03:32:13;4.03;;;1.67;;
5939;SDS011;2995;-31.998;115.906;2024-01-30T03:34:45;7.13;;;1.70;;
5939;SDS011;2995;-31.998;115.906;2024-01-30T03:37:18;7.37;;;1.83;;
5939;SDS011;2995;-31.998;115.906;2024-01-30T03:39:49;7.27;;;1.70;;
5939;SDS011;2995;-31.998;115.906;2024-01-30T03:42:20;5.83;;;1.80;;
5939;SDS011;2995;-31.998;115.906;2024-01-30T03:44:51;6.47;;;1.90;;
5939;SDS011;2995;-31.998;115.906;2024-01-30T03:47:23;4.10;;;1.80;;
5939;SDS011;2995;-31.998;115.906;2024-01-30T03:49:54;5.90;;;2.07;;
5939;SDS011;2995;-31.998;115.906;2024-01-30T03:52:28;4.23;;;1.47;;
5939;SDS011;2995;-31.998;115.906;2024-01-30T03:54:59;3.63;;;1.60;;
5939;SDS011;2995;-31.998;115.906;2024-01-30T03:57:30;6.17;;;1.63;;
5939;SDS011;2995;-31.998;115.906;2024-01-30T04:00:01;4.20;;;1.27;;
5939;SDS011;2995;-31.998;115.906;2024-01-30T04:02:33;8.00;;;1.70;;
5939;SDS011;2995;-31.998;115.906;2024-01-30T04:05:05;9.63;;;1.70;;
5939;SDS011;2995;-31.998;115.906;2024-01-30T04:07:38;4.07;;;1.47;;
5939;SDS011;2995;-31.998;115.906;2024-01-30T04:10:09;4.40;;;1.67;;
5939;SDS011;2995;-31.998;115.906;2024-01-30T04:12:41;9.33;;;2.07;;
5939;SDS011;2995;-31.998;115.906;2024-01-30T04:15:12;5.03;;;2.47;;
5939;SDS011;2995;-31.998;115.906;2024-01-30T04:17:43;7.70;;;1.90;;
5939;SDS011;2995;-31.998;115.906;2024-01-30T04:20:15;11.17;;;2.50;;
5939;SDS011;2995;-31.998;115.906;2024-01-30T04:22:48;5.23;;;1.83;;
5939;SDS011;2995;-31.998;115.906;2024-01-30T04:25:19;5.93;;;1.40;;
5939;SDS011;2995;-31.998;115.906;2024-01-30T04:27:50;6.60;;;1.73;;
5939;SDS011;2995;-31.998;115.906;2024-01-30T04:30:21;4.13;;;1.50;;
5939;SDS011;2995;-31.998;115.906;2024-01-30T04:32:53;5.00;;;1.87;;
5939;SDS011;2995;-31.998;115.906;2024-01-30T04:35:24;1.97;;;1.40;;
5939;SDS011;2995;-31.998;115.906;2024-01-30T04:37:57;7.27;;;1.80;;
5939;SDS011;2995;-31.998;115.906;2024-01-30T04:40:28;3.30;;;1.63;;
5939;SDS011;2995;-31.998;115.906;2024-01-30T04:43:00;3.73;;;1.50;;
5939;SDS011;2995;-31.998;115.906;2024-01-30T04:45:31;7.70;;;1.80;;
5939;SDS011;2995;-31.998;115.906;2024-01-30T04:48:02;5.53;;;1.90;;
5939;SDS011;2995;-31.998;115.906;2024-01-30T04:50:34;4.07;;;1.27;;
5939;SDS011;2995;-31.998;115.906;2024-01-30T04:53:07;5.83;;;1.50;;
5939;SDS011;2995;-31.998;115.906;2024-01-30T04:55:38;3.30;;;1.43;;
5939;SDS011;2995;-31.998;115.906;2024-01-30T04:58:09;4.43;;;1.83;;
5939;SDS011;2995;-31.998;115.906;2024-01-30T05:00:40;4.83;;;1.57;;
5939;SDS011;2995;-31.998;115.906;2024-01-30T05:03:12;3.50;;;1.40;;
5939;SDS011;2995;-31.998;115.906;2024-01-30T05:05:43;6.37;;;1.87;;
5939;SDS011;2995;-31.998;115.906;2024-01-30T05:08:17;5.20;;;1.70;;
5939;SDS011;2995;-31.998;115.906;2024-01-30T05:10:48;5.60;;;1.70;;
5939;SDS011;2995;-31.998;115.906;2024-01-30T05:13:19;6.80;;;1.83;;
5939;SDS011;2995;-31.998;115.906;2024-01-30T05:15:50;2.83;;;1.50;;
5939;SDS011;2995;-31.998;115.906;2024-01-30T05:18:21;8.57;;;2.03;;
5939;SDS011;2995;-31.998;115.906;2024-01-30T05:20:53;5.20;;;1.50;;
5939;SDS011;2995;-31.998;115.906;2024-01-30T05:23:26;4.27;;;1.57;;
5939;SDS011;2995;-31.998;115.906;2024-01-30T05:25:58;4.37;;;1.60;;
5939;SDS011;2995;-31.998;115.906;2024-01-30T05:28:29;5.77;;;1.80;;
5939;SDS011;2995;-31.998;115.906;2024-01-30T05:31:01;4.50;;;1.87;;
5939;SDS011;2995;-31.998;115.906;2024-01-30T05:33:32;3.30;;;1.47;;
5939;SDS011;2995;-31.998;115.906;2024-01-30T05:36:03;4.57;;;1.70;;
5939;SDS011;2995;-31.998;115.906;2024-01-30T05:38:37;3.90;;;1.60;;
5939;SDS011;2995;-31.998;115.906;2024-01-30T05:41:09;3.83;;;1.40;;
5939;SDS011;2995;-31.998;115.906;2024-01-30T05:43:40;5.37;;;1.60;;
5939;SDS011;2995;-31.998;115.906;2024-01-30T05:46:11;4.70;;;2.07;;
5939;SDS011;2995;-31.998;115.906;2024-01-30T05:48:42;8.63;;;2.00;;
5939;SDS011;2995;-31.998;115.906;2024-01-30T05:51:14;5.90;;;1.90;;
5939;SDS011;2995;-31.998;115.906;2024-01-30T05:53:47;7.33;;;1.60;;
5939;SDS011;2995;-31.998;115.906;2024-01-30T05:56:18;13.70;;;2.03;;
5939;SDS011;2995;-31.998;115.906;2024-01-30T05:58:49;6.67;;;1.70;;
5939;SDS011;2995;-31.998;115.906;2024-01-30T06:01:21;4.63;;;1.60;;
5939;SDS011;2995;-31.998;115.906;2024-01-30T06:03:52;6.80;;;1.80;;
5939;SDS011;2995;-31.998;115.906;2024-01-30T06:06:23;4.97;;;1.57;;
5939;SDS011;2995;-31.998;115.906;2024-01-30T06:08:56;5.63;;;1.80;;
5939;SDS011;2995;-31.998;115.906;2024-01-30T06:11:27;7.50;;;1.80;;
5939;SDS011;2995;-31.998;115.906;2024-01-30T06:13:59;4.33;;;1.70;;
5939;SDS011;2995;-31.998;115.906;2024-01-30T06:16:30;6.40;;;1.50;;
5939;SDS011;2995;-31.998;115.906;2024-01-30T06:19:01;8.20;;;1.50;;
5939;SDS011;2995;-31.998;115.906;2024-01-30T06:21:32;5.23;;;1.63;;
5939;SDS011;2995;-31.998;115.906;2024-01-30T06:24:06;4.23;;;1.63;;
5939;SDS011;2995;-31.998;115.906;2024-01-30T06:26:38;3.30;;;1.40;;
5939;SDS011;2995;-31.998;115.906;2024-01-30T06:29:09;4.00;;;1.57;;
5939;SDS011;2995;-31.998;115.906;2024-01-30T06:31:41;6.17;;;2.00;;
5939;SDS011;2995;-31.998;115.906;2024-01-30T06:34:12;5.77;;;1.53;;
5939;SDS011;2995;-31.998;115.906;2024-01-30T06:36:43;4.50;;;1.67;;
5939;SDS011;2995;-31.998;115.906;2024-01-30T06:39:16;4.57;;;1.93;;
5939;SDS011;2995;-31.998;115.906;2024-01-30T06:41:48;6.07;;;2.03;;
5939;SDS011;2995;-31.998;115.906;2024-01-30T06:44:19;5.03;;;1.70;;
5939;SDS011;2995;-31.998;115.906;2024-01-30T06:46:50;4.43;;;1.80;;
5939;SDS011;2995;-31.998;115.906;2024-01-30T06:49:21;8.57;;;2.10;;
5939;SDS011;2995;-31.998;115.906;2024-01-30T06:51:52;7.53;;;2.00;;
5939;SDS011;2995;-31.998;115.906;2024-01-30T06:54:26;5.20;;;1.87;;
5939;SDS011;2995;-31.998;115.906;2024-01-30T06:56:57;5.70;;;2.00;;
5939;SDS011;2995;-31.998;115.906;2024-01-30T06:59:28;4.63;;;1.40;;
5939;SDS011;2995;-31.998;115.906;2024-01-30T07:02:00;3.47;;;1.60;;
5939;SDS011;2995;-31.998;115.906;2024-01-30T07:04:31;3.93;;;1.47;;
5939;SDS011;2995;-31.998;115.906;2024-01-30T07:07:03;5.43;;;1.80;;
5939;SDS011;2995;-31.998;115.906;2024-01-30T07:09:40;4.70;;;2.03;;
5939;SDS011;2995;-31.998;115.906;2024-01-30T07:12:12;5.63;;;1.83;;
5939;SDS011;2995;-31.998;115.906;2024-01-30T07:14:43;7.60;;;1.80;;
5939;SDS011;2995;-31.998;115.906;2024-01-30T07:17:14;6.03;;;1.77;;
5939;SDS011;2995;-31.998;115.906;2024-01-30T07:19:46;4.47;;;1.40;;
5939;SDS011;2995;-31.998;115.906;2024-01-30T07:22:17;4.03;;;1.57;;
5939;SDS011;2995;-31.998;115.906;2024-01-30T07:24:50;9.60;;;1.80;;
5939;SDS011;2995;-31.998;115.906;2024-01-30T07:27:21;5.70;;;1.50;;
5939;SDS011;2995;-31.998;115.906;2024-01-30T07:29:52;4.30;;;1.60;;
5939;SDS011;2995;-31.998;115.906;2024-01-30T07:32:24;3.50;;;1.50;;
5939;SDS011;2995;-31.998;115.906;2024-01-30T07:34:55;3.20;;;1.50;;
5939;SDS011;2995;-31.998;115.906;2024-01-30T07:37:26;9.77;;;2.03;;
5939;SDS011;2995;-31.998;115.906;2024-01-30T07:40:00;6.73;;;1.87;;
5939;SDS011;2995;-31.998;115.906;2024-01-30T07:42:32;8.00;;;1.70;;
5939;SDS011;2995;-31.998;115.906;2024-01-30T07:45:03;6.40;;;1.77;;
5939;SDS011;2995;-31.998;115.906;2024-01-30T07:47:35;7.53;;;2.00;;
5939;SDS011;2995;-31.998;115.906;2024-01-30T07:50:06;4.53;;;1.57;;
5939;SDS011;2995;-31.998;115.906;2024-01-30T07:52:39;6.70;;;2.10;;
5939;SDS011;2995;-31.998;115.906;2024-01-30T07:55:12;5.13;;;2.10;;
5939;SDS011;2995;-31.998;115.906;2024-01-30T07:57:43;5.83;;;1.63;;
5939;SDS011;2995;-31.998;115.906;2024-01-30T08:00:15;6.80;;;1.80;;
5939;SDS011;2995;-31.998;115.906;2024-01-30T08:02:46;8.03;;;2.07;;
5939;SDS011;2995;-31.998;115.906;2024-01-30T08:05:20;8.83;;;2.30;;
5939;SDS011;2995;-31.998;115.906;2024-01-30T08:07:51;6.80;;;1.80;;
5939;SDS011;2995;-31.998;115.906;2024-01-30T08:10:25;6.97;;;1.63;;
5939;SDS011;2995;-31.998;115.906;2024-01-30T08:12:56;8.90;;;1.70;;
5939;SDS011;2995;-31.998;115.906;2024-01-30T08:15:28;6.13;;;1.90;;
5939;SDS011;2995;-31.998;115.906;2024-01-30T08:17:59;14.93;;;2.00;;
5939;SDS011;2995;-31.998;115.906;2024-01-30T08:20:32;5.70;;;1.93;;
5939;SDS011;2995;-31.998;115.906;2024-01-30T08:23:03;5.67;;;1.90;;
5939;SDS011;2995;-31.998;115.906;2024-01-30T08:25:36;5.90;;;1.87;;
5939;SDS011;2995;-31.998;115.906;2024-01-30T08:28:08;7.90;;;1.93;;
5939;SDS011;2995;-31.998;115.906;2024-01-30T08:30:39;6.63;;;1.90;;
5939;SDS011;2995;-31.998;115.906;2024-01-30T08:33:10;11.63;;;2.00;;
5939;SDS011;2995;-31.998;115.906;2024-01-30T08:35:41;5.80;;;1.53;;
5939;SDS011;2995;-31.998;115.906;2024-01-30T08:38:12;11.20;;;2.60;;
5939;SDS011;2995;-31.998;115.906;2024-01-30T08:40:46;7.13;;;1.60;;
5939;SDS011;2995;-31.998;115.906;2024-01-30T08:43:17;8.20;;;2.23;;
5939;SDS011;2995;-31.998;115.906;2024-01-30T08:45:48;6.70;;;2.00;;
5939;SDS011;2995;-31.998;115.906;2024-01-30T08:48:19;3.70;;;1.50;;
5939;SDS011;2995;-31.998;115.906;2024-01-30T08:50:51;5.93;;;1.53;;
5939;SDS011;2995;-31.998;115.906;2024-01-30T08:53:23;7.63;;;2.20;;
5939;SDS011;2995;-31.998;115.906;2024-01-30T08:55:56;6.30;;;1.80;;
5939;SDS011;2995;-31.998;115.906;2024-01-30T08:58:27;6.70;;;1.80;;
5939;SDS011;2995;-31.998;115.906;2024-01-30T09:00:59;8.73;;;1.80;;
5939;SDS011;2995;-31.998;115.906;2024-01-30T09:03:31;5.80;;;1.63;;
5939;SDS011;2995;-31.998;115.906;2024-01-30T09:06:03;4.70;;;2.00;;
5939;SDS011;2995;-31.998;115.906;2024-01-30T09:08:37;6.20;;;1.67;;
5939;SDS011;2995;-31.998;115.906;2024-01-30T09:11:13;5.77;;;2.30;;
5939;SDS011;2995;-31.998;115.906;2024-01-30T09:13:45;7.20;;;1.90;;
5939;SDS011;2995;-31.998;115.906;2024-01-30T09:16:16;7.27;;;2.00;;
5939;SDS011;2995;-31.998;115.906;2024-01-30T09:18:47;7.87;;;2.67;;
5939;SDS011;2995;-31.998;115.906;2024-01-30T09:21:18;4.00;;;1.70;;
5939;SDS011;2995;-31.998;115.906;2024-01-30T09:23:50;9.50;;;2.13;;
5939;SDS011;2995;-31.998;115.906;2024-01-30T09:26:25;5.23;;;2.00;;
5939;SDS011;2995;-31.998;115.906;2024-01-30T09:28:56;8.53;;;2.00;;
5939;SDS011;2995;-31.998;115.906;2024-01-30T09:31:28;13.90;;;2.60;;
5939;SDS011;2995;-31.998;115.906;2024-01-30T09:33:59;7.70;;;2.10;;
5939;SDS011;2995;-31.998;115.906;2024-01-30T09:36:31;11.50;;;2.50;;
5939;SDS011;2995;-31.998;115.906;2024-01-30T09:39:03;8.23;;;2.23;;
5939;SDS011;2995;-31.998;115.906;2024-01-30T09:41:37;8.40;;;2.83;;
5939;SDS011;2995;-31.998;115.906;2024-01-30T09:44:15;8.90;;;2.37;;
5939;SDS011;2995;-31.998;115.906;2024-01-30T09:46:47;21.33;;;3.03;;
5939;SDS011;2995;-31.998;115.906;2024-01-30T09:49:20;9.60;;;2.67;;
5939;SDS011;2995;-31.998;115.906;2024-01-30T09:51:51;10.20;;;2.77;;
5939;SDS011;2995;-31.998;115.906;2024-01-30T09:54:23;8.90;;;2.23;;
5939;SDS011;2995;-31.998;115.906;2024-01-30T09:56:56;7.53;;;2.63;;
5939;SDS011;2995;-31.998;115.906;2024-01-30T09:59:28;10.33;;;2.67;;
5939;SDS011;2995;-31.998;115.906;2024-01-30T10:01:59;9.10;;;1.93;;
5939;SDS011;2995;-31.998;115.906;2024-01-30T10:04:31;8.00;;;2.27;;
5939;SDS011;2995;-31.998;115.906;2024-01-30T10:07:02;7.50;;;2.27;;
5939;SDS011;2995;-31.998;115.906;2024-01-30T10:09:34;5.57;;;2.03;;
5939;SDS011;2995;-31.998;115.906;2024-01-30T10:12:08;5.30;;;1.80;;
5939;SDS011;2995;-31.998;115.906;2024-01-30T10:14:40;8.03;;;2.50;;
5939;SDS011;2995;-31.998;115.906;2024-01-30T10:17:12;10.47;;;2.67;;
5939;SDS011;2995;-31.998;115.906;2024-01-30T10:19:43;9.87;;;2.77;;
5939;SDS011;2995;-31.998;115.906;2024-01-30T10:22:14;10.17;;;2.50;;
5939;SDS011;2995;-31.998;115.906;2024-01-30T10:24:46;13.33;;;2.77;;
5939;SDS011;2995;-31.998;115.906;2024-01-30T10:27:27;6.47;;;2.17;;
5939;SDS011;2995;-31.998;115.906;2024-01-30T10:29:58;7.67;;;2.03;;
5939;SDS011;2995;-31.998;115.906;2024-01-30T10:32:30;8.40;;;2.40;;
5939;SDS011;2995;-31.998;115.906;2024-01-30T10:35:01;7.40;;;2.37;;
5939;SDS011;2995;-31.998;115.906;2024-01-30T10:37:32;7.53;;;2.30;;
5939;SDS011;2995;-31.998;115.906;2024-01-30T10:40:04;12.47;;;2.53;;
5939;SDS011;2995;-31.998;115.906;2024-01-30T10:42:38;8.07;;;2.20;;
5939;SDS011;2995;-31.998;115.906;2024-01-30T10:45:14;13.70;;;2.40;;
5939;SDS011;2995;-31.998;115.906;2024-01-30T10:47:48;10.87;;;2.30;;
5939;SDS011;2995;-31.998;115.906;2024-01-30T10:50:20;7.90;;;2.27;;
5939;SDS011;2995;-31.998;115.906;2024-01-30T10:52:52;7.50;;;2.27;;
5939;SDS011;2995;-31.998;115.906;2024-01-30T10:55:25;8.63;;;2.40;;
5939;SDS011;2995;-31.998;115.906;2024-01-30T10:58:01;9.80;;;2.10;;
5939;SDS011;2995;-31.998;115.906;2024-01-30T11:00:33;9.63;;;2.87;;
5939;SDS011;2995;-31.998;115.906;2024-01-30T11:03:04;6.00;;;2.13;;
5939;SDS011;2995;-31.998;115.906;2024-01-30T11:05:36;10.33;;;2.40;;
5939;SDS011;2995;-31.998;115.906;2024-01-30T11:08:11;12.70;;;2.83;;
5939;SDS011;2995;-31.998;115.906;2024-01-30T11:10:46;6.27;;;2.20;;
5939;SDS011;2995;-31.998;115.906;2024-01-30T11:13:20;7.90;;;2.03;;
5939;SDS011;2995;-31.998;115.906;2024-01-30T11:15:51;14.10;;;2.40;;
5939;SDS011;2995;-31.998;115.906;2024-01-30T11:18:25;12.03;;;2.80;;
5939;SDS011;2995;-31.998;115.906;2024-01-30T11:20:58;8.07;;;2.63;;
5939;SDS011;2995;-31.998;115.906;2024-01-30T11:23:30;6.63;;;2.50;;
5939;SDS011;2995;-31.998;115.906;2024-01-30T11:26:04;10.40;;;2.30;;
5939;SDS011;2995;-31.998;115.906;2024-01-30T11:28:37;11.93;;;2.67;;
5939;SDS011;2995;-31.998;115.906;2024-01-30T11:31:08;17.07;;;3.43;;
5939;SDS011;2995;-31.998;115.906;2024-01-30T11:33:47;12.17;;;3.00;;
5939;SDS011;2995;-31.998;115.906;2024-01-30T11:36:25;10.93;;;2.77;;
5939;SDS011;2995;-31.998;115.906;2024-01-30T11:38:56;9.47;;;2.70;;
5939;SDS011;2995;-31.998;115.906;2024-01-30T11:41:28;10.80;;;2.73;;
5939;SDS011;2995;-31.998;115.906;2024-01-30T11:44:03;10.60;;;2.10;;
5939;SDS011;2995;-31.998;115.906;2024-01-30T11:46:35;7.10;;;2.53;;
5939;SDS011;2995;-31.998;115.906;2024-01-30T11:49:07;10.77;;;2.90;;
5939;SDS011;2995;-31.998;115.906;2024-01-30T11:51:38;7.77;;;2.80;;
5939;SDS011;2995;-31.998;115.906;2024-01-30T11:54:09;10.33;;;3.30;;
5939;SDS011;2995;-31.998;115.906;2024-01-30T11:56:41;8.50;;;2.60;;
5939;SDS011;2995;-31.998;115.906;2024-01-30T11:59:14;9.50;;;2.40;;
5939;SDS011;2995;-31.998;115.906;2024-01-30T12:01:46;11.90;;;2.93;;
5939;SDS011;2995;-31.998;115.906;2024-01-30T12:04:17;8.53;;;2.53;;
5939;SDS011;2995;-31.998;115.906;2024-01-30T12:06:51;9.40;;;2.87;;
5939;SDS011;2995;-31.998;115.906;2024-01-30T12:09:22;7.90;;;2.50;;
5939;SDS011;2995;-31.998;115.906;2024-01-30T12:11:54;8.43;;;2.20;;
5939;SDS011;2995;-31.998;115.906;2024-01-30T12:14:28;6.03;;;2.37;;
5939;SDS011;2995;-31.998;115.906;2024-01-30T12:16:59;10.23;;;2.73;;
5939;SDS011;2995;-31.998;115.906;2024-01-30T12:19:31;14.73;;;2.70;;
5939;SDS011;2995;-31.998;115.906;2024-01-30T12:22:02;8.23;;;1.93;;
5939;SDS011;2995;-31.998;115.906;2024-01-30T12:24:34;6.60;;;2.60;;
5939;SDS011;2995;-31.998;115.906;2024-01-30T12:27:06;9.63;;;2.33;;
5939;SDS011;2995;-31.998;115.906;2024-01-30T12:29:41;10.10;;;2.57;;
5939;SDS011;2995;-31.998;115.906;2024-01-30T12:32:15;6.37;;;2.10;;
5939;SDS011;2995;-31.998;115.906;2024-01-30T12:34:46;14.50;;;2.80;;
5939;SDS011;2995;-31.998;115.906;2024-01-30T12:37:17;7.70;;;2.33;;
5939;SDS011;2995;-31.998;115.906;2024-01-30T12:39:51;6.23;;;2.40;;
5939;SDS011;2995;-31.998;115.906;2024-01-30T12:42:22;4.67;;;2.30;;
5939;SDS011;2995;-31.998;115.906;2024-01-30T12:44:59;11.00;;;2.90;;
5939;SDS011;2995;-31.998;115.906;2024-01-30T12:47:31;7.53;;;2.10;;
5939;SDS011;2995;-31.998;115.906;2024-01-30T12:50:02;10.17;;;2.83;;
5939;SDS011;2995;-31.998;115.906;2024-01-30T12:52:35;5.70;;;2.37;;
5939;SDS011;2995;-31.998;115.906;2024-01-30T12:55:07;8.00;;;2.73;;
5939;SDS011;2995;-31.998;115.906;2024-01-30T12:57:38;14.20;;;2.60;;
5939;SDS011;2995;-31.998;115.906;2024-01-30T13:00:11;8.70;;;2.53;;
5939;SDS011;2995;-31.998;115.906;2024-01-30T13:02:43;9.23;;;2.67;;
5939;SDS011;2995;-31.998;115.906;2024-01-30T13:05:15;13.90;;;3.57;;
5939;SDS011;2995;-31.998;115.906;2024-01-30T13:07:46;10.47;;;2.60;;
5939;SDS011;2995;-31.998;115.906;2024-01-30T13:10:18;8.53;;;2.80;;
5939;SDS011;2995;-31.998;115.906;2024-01-30T13:12:49;6.73;;;2.33;;
5939;SDS011;2995;-31.998;115.906;2024-01-30T13:15:22;5.00;;;2.93;;
5939;SDS011;2995;-31.998;115.906;2024-01-30T13:17:53;7.20;;;2.57;;
5939;SDS011;2995;-31.998;115.906;2024-01-30T13:20:25;10.53;;;2.93;;
5939;SDS011;2995;-31.998;115.906;2024-01-30T13:22:56;9.57;;;2.50;;
5939;SDS011;2995;-31.998;115.906;2024-01-30T13:25:28;8.80;;;3.60;;
5939;SDS011;2995;-31.998;115.906;2024-01-30T13:28:02;4.50;;;2.03;;
5939;SDS011;2995;-31.998;115.906;2024-01-30T13:30:35;9.30;;;2.60;;
5939;SDS011;2995;-31.998;115.906;2024-01-30T13:33:07;16.77;;;2.90;;
5939;SDS011;2995;-31.998;115.906;2024-01-30T13:35:38;11.80;;;3.00;;
5939;SDS011;2995;-31.998;115.906;2024-01-30T13:38:10;8.80;;;2.83;;
5939;SDS011;2995;-31.998;115.906;2024-01-30T13:40:42;5.03;;;2.37;;
5939;SDS011;2995;-31.998;115.906;2024-01-30T13:43:13;10.03;;;3.20;;
5939;SDS011;2995;-31.998;115.906;2024-01-30T13:45:46;9.63;;;2.10;;
5939;SDS011;2995;-31.998;115.906;2024-01-30T13:48:18;6.63;;;2.43;;
5939;SDS011;2995;-31.998;115.906;2024-01-30T13:50:49;5.10;;;2.20;;
5939;SDS011;2995;-31.998;115.906;2024-01-30T13:53:20;8.80;;;2.80;;
5939;SDS011;2995;-31.998;115.906;2024-01-30T13:55:51;10.93;;;2.40;;
5939;SDS011;2995;-31.998;115.906;2024-01-30T13:58:22;11.00;;;2.77;;
5939;SDS011;2995;-31.998;115.906;2024-01-30T14:00:56;9.43;;;2.60;;
5939;SDS011;2995;-31.998;115.906;2024-01-30T14:03:27;10.13;;;3.33;;
5939;SDS011;2995;-31.998;115.906;2024-01-30T14:05:59;13.30;;;3.30;;
5939;SDS011;2995;-31.998;115.906;2024-01-30T14:08:31;10.10;;;3.10;;
5939;SDS011;2995;-31.998;115.906;2024-01-30T14:11:02;9.43;;;2.83;;
5939;SDS011;2995;-31.998;115.906;2024-01-30T14:13:33;7.90;;;2.77;;
5939;SDS011;2995;-31.998;115.906;2024-01-30T14:16:07;8.20;;;2.30;;
5939;SDS011;2995;-31.998;115.906;2024-01-30T14:18:38;15.47;;;4.03;;
5939;SDS011;2995;-31.998;115.906;2024-01-30T14:21:09;6.13;;;3.07;;
5939;SDS011;2995;-31.998;115.906;2024-01-30T14:23:40;8.33;;;2.80;;
5939;SDS011;2995;-31.998;115.906;2024-01-30T14:26:13;11.37;;;3.60;;
5939;SDS011;2995;-31.998;115.906;2024-01-30T14:28:44;8.10;;;2.40;;
5939;SDS011;2995;-31.998;115.906;2024-01-30T14:31:18;8.20;;;3.20;;
5939;SDS011;2995;-31.998;115.906;2024-01-30T14:33:50;12.43;;;3.00;;
5939;SDS011;2995;-31.998;115.906;2024-01-30T14:36:21;9.37;;;3.00;;
5939;SDS011;2995;-31.998;115.906;2024-01-30T14:38:54;7.33;;;2.53;;
5939;SDS011;2995;-31.998;115.906;2024-01-30T14:41:25;9.87;;;2.77;;
5939;SDS011;2995;-31.998;115.906;2024-01-30T14:43:56;10.27;;;2.80;;
5939;SDS011;2995;-31.998;115.906;2024-01-30T14:46:30;8.40;;;2.50;;
5939;SDS011;2995;-31.998;115.906;2024-01-30T14:49:01;9.70;;;3.10;;
5939;SDS011;2995;-31.998;115.906;2024-01-30T14:51:34;8.30;;;2.67;;
5939;SDS011;2995;-31.998;115.906;2024-01-30T14:54:05;10.30;;;2.60;;
5939;SDS011;2995;-31.998;115.906;2024-01-30T14:56:37;9.90;;;2.87;;
5939;SDS011;2995;-31.998;115.906;2024-01-30T14:59:09;12.63;;;3.30;;
5939;SDS011;2995;-31.998;115.906;2024-01-30T15:01:42;8.10;;;2.77;;